Time,TemperatureF,DewpointF,PressureIn,WindDirection,WindDirectionDegrees,WindSpeedMPH,WindSpeedGustMPH,Humidity,HourlyPrecipIn,Conditions,Clouds,dailyrainin,SoftwareType,DateUTC
2013-01-10 00:00:00,54.1,45.3,29.38,ESE,112,0.0,0.0,72,0.00,CLR,SCT,0.00,WeatherDisplay:10.37,2013-01-10 05:00:00,
2013-01-10 00:05:00,54.1,45.3,29.38,ESE,112,0.0,0.0,72,0.00,CLR,SCT,0.00,WeatherDisplay:10.37,2013-01-10 05:05:00,
2013-01-10 00:10:00,54.0,45.1,29.38,ESE,112,0.0,0.0,72,0.00,CLR,SCT,0.00,WeatherDisplay:10.37,2013-01-10 05:10:00,
2013-01-10 00:15:00,53.8,45.0,29.38,ESE,112,0.0,0.0,72,0.00,CLR,SCT,0.00,WeatherDisplay:10.37,2013-01-10 05:15:00,
2013-01-10 00:20:00,53.6,44.8,29.38,ESE,112,0.0,0.0,72,0.00,CLR,SCT,0.00,WeatherDisplay:10.37,2013-01-10 05:20:00,
2013-01-10 00:25:00,53.6,44.8,29.38,ESE,112,0.0,0.0,72,0.00,CLR,SCT,0.00,WeatherDisplay:10.37,2013-01-10 05:25:00,
2013-01-10 00:30:00,53.2,44.8,29.38,ESE,112,0.0,0.0,73,0.00,CLR,SCT,0.00,WeatherDisplay:10.37,2013-01-10 05:30:00,
2013-01-10 00:35:00,53.2,44.8,29.38,ESE,112,0.0,0.0,73,0.00,CLR,SCT,0.00,WeatherDisplay:10.37,2013-01-10 05:35:00,
2013-01-10 00:40:00,53.1,45.0,29.38,ESE,112,0.0,0.0,74,0.00,CLR,SCT,0.00,WeatherDisplay:10.37,2013-01-10 05:40:00,
2013-01-10 00:45:00,53.1,45.0,29.38,ESE,112,0.0,0.0,74,0.00,CLR,SCT,0.00,WeatherDisplay:10.37,2013-01-10 05:45:00,
2013-01-10 00:50:00,53.1,45.0,29.38,ESE,112,0.0,0.0,74,0.00,CLR,SCT,0.00,WeatherDisplay:10.37,2013-01-10 05:50:00,
2013-01-10 00:55:00,52.7,44.6,29.38,ESE,112,0.0,0.0,74,0.00,CLR,SCT,0.00,WeatherDisplay:10.37,2013-01-10 05:55:00,
2013-01-10 01:00:00,52.7,44.6,29.38,ESE,112,0.0,0.0,74,0.00,CLR,SCT,0.00,WeatherDisplay:10.37,2013-01-10 06:00:00,
2013-01-10 01:05:00,52.5,44.5,29.38,ESE,112,0.0,0.0,74,0.00,CLR,SCT,0.00,WeatherDisplay:10.37,2013-01-10 06:05:00,
2013-01-10 01:10:00,52.3,44.6,29.38,ESE,112,0.0,0.0,75,0.00,CLR,SCT,0.00,WeatherDisplay:10.37,2013-01-10 06:10:00,
2013-01-10 01:15:00,52.3,44.6,29.41,ESE,112,0.0,0.0,75,0.00,CLR,SCT,0.00,WeatherDisplay:10.37,2013-01-10 06:15:00,
2013-01-10 01:20:00,52.2,44.5,29.41,ESE,112,0.0,0.0,75,0.00,CLR,SCT,0.00,WeatherDisplay:10.37,2013-01-10 06:20:00,
2013-01-10 01:25:00,52.2,44.5,29.41,ESE,112,0.0,0.0,75,0.00,CLR,SCT,0.00,WeatherDisplay:10.37,2013-01-10 06:25:00,
2013-01-10 01:30:00,52.2,44.5,29.38,ESE,112,0.0,0.0,75,0.00,CLR,SCT,0.00,WeatherDisplay:10.37,2013-01-10 06:30:00,
2013-01-10 01:35:00,52.0,44.6,29.38,ESE,112,0.0,0.0,76,0.00,CLR,SCT,0.00,WeatherDisplay:10.37,2013-01-10 06:35:00,
2013-01-10 01:40:00,52.0,44.6,29.38,ESE,112,0.0,0.0,76,0.00,CLR,SCT,0.00,WeatherDisplay:10.37,2013-01-10 06:40:00,
2013-01-10 01:45:00,51.8,44.5,29.38,ESE,112,0.0,0.0,76,0.00,CLR,SCT,0.00,WeatherDisplay:10.37,2013-01-10 06:45:00,
2013-01-10 01:50:00,51.6,44.3,29.38,ESE,112,0.0,0.0,76,0.00,CLR,SCT,0.00,WeatherDisplay:10.37,2013-01-10 06:50:00,
2013-01-10 01:55:00,51.4,44.1,29.38,ESE,112,0.0,0.0,76,0.00,CLR,SCT,0.00,WeatherDisplay:10.37,2013-01-10 06:55:00,
2013-01-10 02:00:00,51.4,44.1,29.38,ESE,112,0.0,0.0,76,0.00,CLR,SCT,0.00,WeatherDisplay:10.37,2013-01-10 07:00:00,
2013-01-10 02:05:00,51.4,44.5,29.38,ESE,112,0.0,0.0,77,0.00,CLR,SCT,0.00,WeatherDisplay:10.37,2013-01-10 07:05:00,
2013-01-10 02:10:00,51.3,44.3,29.38,ESE,112,0.0,0.0,77,0.00,CLR,SCT,0.00,WeatherDisplay:10.37,2013-01-10 07:10:00,
2013-01-10 02:15:00,51.3,44.6,29.38,ESE,112,0.0,0.0,78,0.00,CLR,SCT,0.00,WeatherDisplay:10.37,2013-01-10 07:15:00,
2013-01-10 02:20:00,51.1,44.5,29.38,ESE,112,0.0,0.0,78,0.00,CLR,SCT,0.00,WeatherDisplay:10.37,2013-01-10 07:20:00,
2013-01-10 02:25:00,51.1,44.5,29.38,ESE,112,0.0,0.0,78,0.00,CLR,SCT,0.00,WeatherDisplay:10.37,2013-01-10 07:25:00,
2013-01-10 02:30:00,50.9,44.6,29.38,ESE,112,0.0,0.0,79,0.00,CLR,SCT,0.00,WeatherDisplay:10.37,2013-01-10 07:30:00,
2013-01-10 02:35:00,50.7,44.1,29.38,ESE,112,0.0,0.0,78,0.00,CLR,SCT,0.00,WeatherDisplay:10.37,2013-01-10 07:35:00,
2013-01-10 02:40:00,50.5,43.9,29.38,ESE,112,0.0,0.0,78,0.00,CLR,SCT,0.00,WeatherDisplay:10.37,2013-01-10 07:40:00,
2013-01-10 02:45:00,50.4,43.8,29.38,ESE,112,0.0,0.0,78,0.00,CLR,SCT,0.00,WeatherDisplay:10.37,2013-01-10 07:45:00,
2013-01-10 02:50:00,50.4,43.8,29.38,ESE,112,0.0,0.0,78,0.00,CLR,SCT,0.00,WeatherDisplay:10.37,2013-01-10 07:50:00,
2013-01-10 02:55:00,50.4,44.1,29.38,ESE,112,0.0,0.0,79,0.00,CLR,SCT,0.00,WeatherDisplay:10.37,2013-01-10 07:55:00,
2013-01-10 03:00:00,50.2,44.2,29.38,ESE,112,0.0,0.0,80,0.00,CLR,SCT,0.00,WeatherDisplay:10.37,2013-01-10 08:00:00,
2013-01-10 03:05:00,50.2,44.2,29.38,ESE,112,0.0,0.0,80,0.00,CLR,SCT,0.00,WeatherDisplay:10.37,2013-01-10 08:05:00,
2013-01-10 03:10:00,50.0,44.1,29.38,ESE,112,0.0,0.0,80,0.00,CLR,SCT,0.00,WeatherDisplay:10.37,2013-01-10 08:10:00,
2013-01-10 03:15:00,50.2,44.2,29.38,ESE,112,0.0,0.0,80,0.00,CLR,SCT,0.00,WeatherDisplay:10.37,2013-01-10 08:15:00,
2013-01-10 03:20:00,49.8,43.9,29.38,ESE,112,0.0,0.0,80,0.00,CLR,SCT,0.00,WeatherDisplay:10.37,2013-01-10 08:20:00,
2013-01-10 03:25:00,50.0,44.1,29.38,ESE,112,0.0,0.0,80,0.00,CLR,SCT,0.00,WeatherDisplay:10.37,2013-01-10 08:25:00,
2013-01-10 03:30:00,49.8,44.2,29.38,ESE,112,0.0,0.0,81,0.00,CLR,SCT,0.00,WeatherDisplay:10.37,2013-01-10 08:30:00,
2013-01-10 03:35:00,49.8,44.2,29.38,ESE,112,0.0,0.0,81,0.00,CLR,SCT,0.00,WeatherDisplay:10.37,2013-01-10 08:35:00,
2013-01-10 03:40:00,49.8,44.2,29.38,ESE,112,0.0,0.0,81,0.00,CLR,SCT,0.00,WeatherDisplay:10.37,2013-01-10 08:40:00,
2013-01-10 03:45:00,50.0,44.4,29.38,ESE,112,0.0,0.0,81,0.00,CLR,SCT,0.00,WeatherDisplay:10.37,2013-01-10 08:45:00,
2013-01-10 03:50:00,49.8,44.5,29.38,ESE,112,0.0,0.0,82,0.00,CLR,SCT,0.00,WeatherDisplay:10.37,2013-01-10 08:50:00,
2013-01-10 03:55:00,49.6,44.4,29.38,ESE,112,0.0,0.0,82,0.00,CLR,SCT,0.00,WeatherDisplay:10.37,2013-01-10 08:55:00,
2013-01-10 04:00:00,49.6,44.4,29.41,ESE,112,0.0,0.0,82,0.00,CLR,SCT,0.00,WeatherDisplay:10.37,2013-01-10 09:00:00,
2013-01-10 04:05:00,49.5,44.2,29.41,ESE,112,0.0,0.0,82,0.00,CLR,SCT,0.00,WeatherDisplay:10.37,2013-01-10 09:05:00,
2013-01-10 04:10:00,49.3,44.0,29.41,ESE,112,0.0,0.0,82,0.00,CLR,SCT,0.00,WeatherDisplay:10.37,2013-01-10 09:10:00,
2013-01-10 04:15:00,49.1,43.5,29.38,ESE,112,0.0,0.0,81,0.00,CLR,SCT,0.00,WeatherDisplay:10.37,2013-01-10 09:15:00,
2013-01-10 04:20:00,48.9,43.3,29.38,ESE,112,0.0,0.0,81,0.00,CLR,SCT,0.00,WeatherDisplay:10.37,2013-01-10 09:20:00,
2013-01-10 04:25:00,48.9,43.3,29.38,ESE,112,0.0,0.0,81,0.00,CLR,SCT,0.00,WeatherDisplay:10.37,2013-01-10 09:25:00,
2013-01-10 04:30:00,48.9,43.7,29.38,ESE,112,0.0,0.0,82,0.00,CLR,SCT,0.00,WeatherDisplay:10.37,2013-01-10 09:30:00,
2013-01-10 04:35:00,49.1,44.2,29.38,ESE,112,0.0,0.0,83,0.00,CLR,SCT,0.00,WeatherDisplay:10.37,2013-01-10 09:35:00,
2013-01-10 04:40:00,48.9,44.0,29.38,ESE,112,0.0,0.0,83,0.00,CLR,SCT,0.00,WeatherDisplay:10.37,2013-01-10 09:40:00,
2013-01-10 04:45:00,48.9,44.0,29.38,ESE,112,0.0,0.0,83,0.00,CLR,SCT,0.00,WeatherDisplay:10.37,2013-01-10 09:45:00,
2013-01-10 04:50:00,48.7,43.8,29.38,ESE,112,0.0,0.0,83,0.00,CLR,SCT,0.00,WeatherDisplay:10.37,2013-01-10 09:50:00,
2013-01-10 04:55:00,48.7,43.8,29.38,ESE,112,0.0,0.0,83,0.00,CLR,SCT,0.00,WeatherDisplay:10.37,2013-01-10 09:55:00,
2013-01-10 05:00:00,48.7,43.8,29.38,ESE,112,0.0,0.0,83,0.00,CLR,SCT,0.00,WeatherDisplay:10.37,2013-01-10 10:00:00,
2013-01-10 05:05:00,48.7,43.5,29.38,ESE,112,0.0,0.0,82,0.00,CLR,SCT,0.00,WeatherDisplay:10.37,2013-01-10 10:05:00,
2013-01-10 05:10:00,48.6,43.6,29.38,ESE,112,0.0,0.0,83,0.00,CLR,SCT,0.00,WeatherDisplay:10.37,2013-01-10 10:10:00,
2013-01-10 05:15:00,48.6,43.6,29.38,ESE,112,0.0,0.0,83,0.00,CLR,SCT,0.00,WeatherDisplay:10.37,2013-01-10 10:15:00,
2013-01-10 05:20:00,48.6,43.6,29.38,ESE,112,0.0,0.0,83,0.00,CLR,SCT,0.00,WeatherDisplay:10.37,2013-01-10 10:20:00,
2013-01-10 05:25:00,48.4,43.5,29.38,ESE,112,0.0,0.0,83,0.00,CLR,SCT,0.00,WeatherDisplay:10.37,2013-01-10 10:25:00,
2013-01-10 05:30:00,48.4,43.5,29.35,ESE,112,0.0,0.0,83,0.00,CLR,SCT,0.00,WeatherDisplay:10.37,2013-01-10 10:30:00,
2013-01-10 05:35:00,48.2,43.3,29.35,ESE,112,0.0,0.0,83,0.00,CLR,SCT,0.00,WeatherDisplay:10.37,2013-01-10 10:35:00,
2013-01-10 05:40:00,48.2,43.3,29.35,ESE,112,0.0,0.0,83,0.00,CLR,SCT,0.00,WeatherDisplay:10.37,2013-01-10 10:40:00,
2013-01-10 05:45:00,48.0,43.4,29.35,ESE,112,0.0,0.0,84,0.00,CLR,SCT,0.00,WeatherDisplay:10.37,2013-01-10 10:45:00,
2013-01-10 05:50:00,48.0,43.4,29.35,ESE,112,0.0,0.0,84,0.00,CLR,SCT,0.00,WeatherDisplay:10.37,2013-01-10 10:50:00,
2013-01-10 05:55:00,48.0,43.4,29.35,ESE,112,0.0,0.0,84,0.00,CLR,SCT,0.00,WeatherDisplay:10.37,2013-01-10 10:55:00,
2013-01-10 06:00:00,48.0,43.4,29.38,ESE,112,0.0,0.0,84,0.00,CLR,SCT,0.00,WeatherDisplay:10.37,2013-01-10 11:00:00,
2013-01-10 06:05:00,48.2,43.6,29.38,ESE,112,0.0,0.0,84,0.00,CLR,SCT,0.00,WeatherDisplay:10.37,2013-01-10 11:05:00,
2013-01-10 06:10:00,48.2,43.6,29.38,ESE,112,0.0,0.0,84,0.00,CLR,SCT,0.00,WeatherDisplay:10.37,2013-01-10 11:10:00,
2013-01-10 06:15:00,48.0,43.4,29.38,ESE,112,0.0,0.0,84,0.00,CLR,SCT,0.00,WeatherDisplay:10.37,2013-01-10 11:15:00,
2013-01-10 06:20:00,47.8,43.2,29.38,ESE,112,0.0,0.0,84,0.00,CLR,SCT,0.00,WeatherDisplay:10.37,2013-01-10 11:20:00,
2013-01-10 06:25:00,47.8,43.2,29.38,ESE,112,0.0,0.0,84,0.00,CLR,SCT,0.00,WeatherDisplay:10.37,2013-01-10 11:25:00,
2013-01-10 06:30:00,47.8,43.2,29.38,ESE,112,0.0,0.0,84,0.00,CLR,SCT,0.00,WeatherDisplay:10.37,2013-01-10 11:30:00,
2013-01-10 06:35:00,47.8,43.2,29.38,ESE,112,0.0,0.0,84,0.00,CLR,SCT,0.00,WeatherDisplay:10.37,2013-01-10 11:35:00,
2013-01-10 06:40:00,47.5,42.9,29.38,ESE,112,0.0,0.0,84,0.00,CLR,SCT,0.00,WeatherDisplay:10.37,2013-01-10 11:40:00,
2013-01-10 06:45:00,47.5,42.9,29.38,ESE,112,0.0,0.0,84,0.00,CLR,SCT,0.00,WeatherDisplay:10.37,2013-01-10 11:45:00,
2013-01-10 06:50:00,47.5,42.9,29.38,ESE,112,0.0,0.0,84,0.00,CLR,SCT,0.00,WeatherDisplay:10.37,2013-01-10 11:50:00,
2013-01-10 06:55:00,47.5,43.2,29.38,ESE,112,0.0,0.0,85,0.00,CLR,SCT,0.00,WeatherDisplay:10.37,2013-01-10 11:55:00,
2013-01-10 07:00:00,47.7,43.4,29.38,ESE,112,0.0,0.0,85,0.00,CLR,SCT,0.00,WeatherDisplay:10.37,2013-01-10 12:00:00,
2013-01-10 07:05:00,47.7,43.7,29.38,ESE,112,0.0,0.0,86,0.00,CLR,SCT,0.00,WeatherDisplay:10.37,2013-01-10 12:05:00,
2013-01-10 07:10:00,47.5,43.2,29.38,ESE,112,0.0,0.0,85,0.00,CLR,SCT,0.00,WeatherDisplay:10.37,2013-01-10 12:10:00,
2013-01-10 07:15:00,47.3,43.0,29.38,ESE,112,0.0,0.0,85,0.00,CLR,SCT,0.00,WeatherDisplay:10.37,2013-01-10 12:15:00,
2013-01-10 07:20:00,47.3,43.0,29.38,ESE,112,0.0,0.0,85,0.00,CLR,SCT,0.00,WeatherDisplay:10.37,2013-01-10 12:20:00,
2013-01-10 07:25:00,47.3,43.0,29.38,ESE,112,0.0,0.0,85,0.00,CLR,SCT,0.00,WeatherDisplay:10.37,2013-01-10 12:25:00,
2013-01-10 07:30:00,47.3,43.0,29.38,ESE,112,0.0,0.0,85,0.00,CLR,SCT,0.00,WeatherDisplay:10.37,2013-01-10 12:30:00,
2013-01-10 07:35:00,47.3,43.0,29.38,ESE,112,0.0,0.0,85,0.00,CLR,SCT,0.00,WeatherDisplay:10.37,2013-01-10 12:35:00,
2013-01-10 07:40:00,47.3,43.3,29.38,ESE,112,0.0,0.0,86,0.00,CLR,SCT,0.00,WeatherDisplay:10.37,2013-01-10 12:40:00,
2013-01-10 07:45:00,47.3,43.3,29.38,ESE,112,0.0,0.0,86,0.00,CLR,SCT,0.00,WeatherDisplay:10.37,2013-01-10 12:45:00,
2013-01-10 07:50:00,47.3,43.3,29.38,ESE,112,0.0,0.0,86,0.00,CLR,SCT,0.00,WeatherDisplay:10.37,2013-01-10 12:50:00,
2013-01-10 07:55:00,47.3,43.3,29.38,ESE,112,0.0,0.0,86,0.00,CLR,SCT,0.00,WeatherDisplay:10.37,2013-01-10 12:55:00,
2013-01-10 08:00:00,47.3,43.3,29.35,ESE,112,0.0,0.0,86,0.00,CLR,SCT,0.00,WeatherDisplay:10.37,2013-01-10 13:00:00,
2013-01-10 08:05:00,47.5,43.5,29.35,ESE,112,0.0,0.0,86,0.00,CLR,SCT,0.00,WeatherDisplay:10.37,2013-01-10 13:05:00,
2013-01-10 08:10:00,47.5,43.5,29.35,ESE,112,0.0,0.0,86,0.00,CLR,SCT,0.00,WeatherDisplay:10.37,2013-01-10 13:10:00,
2013-01-10 08:15:00,48.0,44.3,29.38,ESE,112,0.0,0.0,87,0.00,CLR,SCT,0.00,WeatherDisplay:10.37,2013-01-10 13:15:00,
2013-01-10 08:20:00,48.2,44.5,29.38,ESE,112,0.0,0.0,87,0.00,CLR,SCT,0.00,WeatherDisplay:10.37,2013-01-10 13:20:00,
2013-01-10 08:25:00,48.4,44.7,29.38,ESE,112,0.0,0.0,87,0.00,CLR,SCT,0.00,WeatherDisplay:10.37,2013-01-10 13:25:00,
2013-01-10 08:30:00,48.6,44.9,29.38,ESE,112,0.0,0.0,87,0.00,CLR,SCT,0.00,WeatherDisplay:10.37,2013-01-10 13:30:00,
2013-01-10 08:35:00,48.9,45.2,29.38,SE,135,0.0,0.0,87,0.00,CLR,SCT,0.00,WeatherDisplay:10.37,2013-01-10 13:35:00,
2013-01-10 08:40:00,49.5,46.1,29.38,SE,135,0.0,0.0,88,0.00,CLR,SCT,0.00,WeatherDisplay:10.37,2013-01-10 13:40:00,
2013-01-10 08:45:00,49.8,46.4,29.41,SE,135,0.0,0.0,88,0.00,CLR,SCT,0.00,WeatherDisplay:10.37,2013-01-10 13:45:00,
2013-01-10 08:50:00,50.4,46.9,29.41,SE,135,0.0,0.0,88,0.00,CLR,SCT,0.00,WeatherDisplay:10.37,2013-01-10 13:50:00,
2013-01-10 08:55:00,50.7,47.3,29.41,SSE,158,0.0,0.0,88,0.00,CLR,SCT,0.00,WeatherDisplay:10.37,2013-01-10 13:55:00,
2013-01-10 09:00:00,51.3,47.8,29.41,SSE,158,1.1,0.0,88,0.00,CLR,SCT,0.00,WeatherDisplay:10.37,2013-01-10 14:00:00,
2013-01-10 09:05:00,52.0,48.5,29.41,SSE,158,0.0,0.0,88,0.00,CLR,SCT,0.00,WeatherDisplay:10.37,2013-01-10 14:05:00,
2013-01-10 09:10:00,52.3,48.9,29.41,SSE,158,0.0,0.0,88,0.00,CLR,SCT,0.00,WeatherDisplay:10.37,2013-01-10 14:10:00,
2013-01-10 09:15:00,52.9,49.4,29.41,SSE,158,0.0,0.0,88,0.00,CLR,SCT,0.00,WeatherDisplay:10.37,2013-01-10 14:15:00,
2013-01-10 09:20:00,53.4,50.0,29.41,SSE,158,0.0,0.0,88,0.00,CLR,SCT,0.00,WeatherDisplay:10.37,2013-01-10 14:20:00,
2013-01-10 09:25:00,54.1,50.4,29.41,SSE,158,0.0,0.0,87,0.00,CLR,SCT,0.00,WeatherDisplay:10.37,2013-01-10 14:25:00,
2013-01-10 09:30:00,55.2,51.7,29.41,ENE,68,1.1,0.0,88,0.00,CLR,SCT,0.00,WeatherDisplay:10.37,2013-01-10 14:30:00,
2013-01-10 09:35:00,56.5,53.0,29.41,North,0,0.0,0.0,88,0.00,CLR,SCT,0.00,WeatherDisplay:10.37,2013-01-10 14:35:00,
2013-01-10 09:40:00,57.2,53.7,29.41,NE,45,2.0,2.0,88,0.00,CLR,SCT,0.00,WeatherDisplay:10.37,2013-01-10 14:40:00,
2013-01-10 09:45:00,58.1,54.2,29.41,NE,45,2.3,2.3,87,0.00,CLR,SCT,0.00,WeatherDisplay:10.37,2013-01-10 14:45:00,
2013-01-10 09:50:00,58.8,52.3,29.41,ENE,68,3.5,3.5,79,0.00,CLR,SCT,0.00,WeatherDisplay:10.37,2013-01-10 14:50:00,
2013-01-10 09:55:00,59.9,51.6,29.41,NNE,22,3.1,3.1,74,0.00,CLR,SCT,0.00,WeatherDisplay:10.37,2013-01-10 14:55:00,
2013-01-10 10:00:00,61.0,50.3,29.41,North,0,3.5,3.5,68,0.00,CLR,SCT,0.00,WeatherDisplay:10.37,2013-01-10 15:00:00,
2013-01-10 10:05:00,61.5,49.2,29.41,East,90,3.5,3.5,64,0.00,CLR,SCT,0.00,WeatherDisplay:10.37,2013-01-10 15:05:00,
2013-01-10 10:10:00,61.7,49.0,29.41,North,0,2.3,2.3,63,0.00,CLR,SCT,0.00,WeatherDisplay:10.37,2013-01-10 15:10:00,
2013-01-10 10:15:00,61.7,45.4,29.41,NNW,338,3.5,3.5,55,0.00,CLR,SCT,0.00,WeatherDisplay:10.37,2013-01-10 15:15:00,
2013-01-10 10:21:00,61.3,41.5,29.41,NNW,338,5.8,5.8,48,0.00,CLR,SCT,0.00,WeatherDisplay:10.37,2013-01-10 15:21:00,
2013-01-10 10:26:00,61.5,42.2,29.41,ENE,68,3.3,3.3,49,0.00,CLR,SCT,0.00,WeatherDisplay:10.37,2013-01-10 15:26:00,
2013-01-10 10:31:00,61.7,42.9,29.44,NNE,22,2.3,2.3,50,0.00,CLR,SCT,0.00,WeatherDisplay:10.37,2013-01-10 15:31:00,
2013-01-10 10:36:00,62.2,42.8,29.44,North,0,4.6,4.6,49,0.00,CLR,SCT,0.00,WeatherDisplay:10.37,2013-01-10 15:36:00,
2013-01-10 10:41:00,62.8,43.3,29.44,NNW,338,3.1,3.1,49,0.00,CLR,SCT,0.00,WeatherDisplay:10.37,2013-01-10 15:41:00,
2013-01-10 10:46:00,63.1,42.6,29.44,NNE,22,2.3,2.3,47,0.00,CLR,SCT,0.00,WeatherDisplay:10.37,2013-01-10 15:46:00,
2013-01-10 10:51:00,63.7,41.3,29.44,NNW,338,3.5,3.5,44,0.00,CLR,SCT,0.00,WeatherDisplay:10.37,2013-01-10 15:51:00,
2013-01-10 10:56:00,64.0,40.5,29.44,North,0,4.6,4.6,42,0.00,CLR,SCT,0.00,WeatherDisplay:10.37,2013-01-10 15:56:00,
2013-01-10 11:01:00,65.1,42.1,29.44,East,90,3.5,3.5,43,0.00,CLR,SCT,0.00,WeatherDisplay:10.37,2013-01-10 16:01:00,
2013-01-10 11:06:00,65.7,42.5,29.44,NNE,22,3.6,3.6,43,0.00,CLR,SCT,0.00,WeatherDisplay:10.37,2013-01-10 16:06:00,
2013-01-10 11:11:00,66.0,41.0,29.44,North,0,3.5,3.5,40,0.00,CLR,SCT,0.00,WeatherDisplay:10.37,2013-01-10 16:11:00,
2013-01-10 11:16:00,66.4,40.7,29.41,North,0,2.3,2.3,39,0.00,CLR,SCT,0.00,WeatherDisplay:10.37,2013-01-10 16:16:00,
2013-01-10 11:21:00,66.6,40.1,29.41,NE,45,5.8,5.8,38,0.00,CLR,SCT,0.00,WeatherDisplay:10.37,2013-01-10 16:21:00,
2013-01-10 11:26:00,66.7,39.6,29.41,North,0,2.9,2.9,37,0.00,CLR,SCT,0.00,WeatherDisplay:10.37,2013-01-10 16:26:00,
2013-01-10 11:31:00,66.4,38.6,29.41,NNE,22,3.1,3.1,36,0.00,CLR,SCT,0.00,WeatherDisplay:10.37,2013-01-10 16:31:00,
2013-01-10 11:36:00,66.7,38.9,29.41,NNW,338,3.5,3.5,36,0.00,CLR,SCT,0.00,WeatherDisplay:10.37,2013-01-10 16:36:00,
2013-01-10 11:41:00,67.1,39.2,29.41,ESE,112,2.4,2.4,36,0.00,CLR,SCT,0.00,WeatherDisplay:10.37,2013-01-10 16:41:00,
2013-01-10 11:46:00,67.3,37.9,29.38,NNE,22,4.6,4.6,34,0.00,CLR,SCT,0.00,WeatherDisplay:10.37,2013-01-10 16:46:00,
2013-01-10 11:51:00,67.5,38.1,29.38,ESE,112,4.6,4.6,34,0.00,CLR,SCT,0.00,WeatherDisplay:10.37,2013-01-10 16:51:00,
2013-01-10 11:56:00,68.0,39.3,29.38,ENE,68,2.3,2.3,35,0.00,CLR,SCT,0.00,WeatherDisplay:10.37,2013-01-10 16:56:00,
2013-01-10 12:01:00,68.4,38.9,29.38,ESE,112,3.3,3.3,34,0.00,CLR,SCT,0.00,WeatherDisplay:10.37,2013-01-10 17:01:00,
2013-01-10 12:06:00,68.2,38.0,29.38,North,0,3.5,3.5,33,0.00,CLR,SCT,0.00,WeatherDisplay:10.37,2013-01-10 17:06:00,
2013-01-10 12:11:00,68.5,38.3,29.38,East,90,2.9,2.9,33,0.00,CLR,SCT,0.00,WeatherDisplay:10.37,2013-01-10 17:11:00,
2013-01-10 12:16:00,68.7,38.4,29.38,NE,45,2.3,2.3,33,0.00,CLR,SCT,0.00,WeatherDisplay:10.37,2013-01-10 17:16:00,
2013-01-10 12:21:00,69.6,39.2,29.38,South,180,1.1,1.6,33,0.00,CLR,SCT,0.00,WeatherDisplay:10.37,2013-01-10 17:21:00,
2013-01-10 12:26:00,69.4,38.3,29.38,ENE,68,4.6,4.6,32,0.00,CLR,SCT,0.00,WeatherDisplay:10.37,2013-01-10 17:26:00,
2013-01-10 12:31:00,69.4,38.3,29.38,NNW,338,2.4,2.4,32,0.00,CLR,SCT,0.00,WeatherDisplay:10.37,2013-01-10 17:31:00,
2013-01-10 12:36:00,69.3,38.1,29.38,NNW,338,3.8,3.8,32,0.00,CLR,SCT,0.00,WeatherDisplay:10.37,2013-01-10 17:36:00,
2013-01-10 12:41:00,68.9,37.8,29.38,NNE,22,3.5,3.5,32,0.00,CLR,SCT,0.00,WeatherDisplay:10.37,2013-01-10 17:41:00,
2013-01-10 12:46:00,69.6,38.4,29.35,East,90,1.1,0.0,32,0.00,CLR,SCT,0.00,WeatherDisplay:10.37,2013-01-10 17:46:00,
2013-01-10 12:51:00,69.8,37.8,29.35,NNE,22,3.5,3.5,31,0.00,CLR,SCT,0.00,WeatherDisplay:10.37,2013-01-10 17:51:00,
2013-01-10 12:56:00,70.3,37.4,29.35,ENE,68,3.5,3.5,30,0.00,CLR,SCT,0.00,WeatherDisplay:10.37,2013-01-10 17:56:00,
2013-01-10 13:01:00,71.1,37.2,29.35,NNW,338,3.1,3.1,29,0.00,CLR,SCT,0.00,WeatherDisplay:10.37,2013-01-10 18:01:00,
2013-01-10 13:06:00,71.6,36.8,29.35,NNE,22,3.8,3.8,28,0.00,CLR,SCT,0.00,WeatherDisplay:10.37,2013-01-10 18:06:00,
2013-01-10 13:11:00,71.2,37.3,29.35,NE,45,2.3,2.3,29,0.00,CLR,SCT,0.00,WeatherDisplay:10.37,2013-01-10 18:11:00,
2013-01-10 13:16:00,71.2,36.4,29.35,North,0,3.5,3.5,28,0.00,CLR,SCT,0.00,WeatherDisplay:10.37,2013-01-10 18:16:00,
2013-01-10 13:21:00,72.0,37.1,29.35,WNW,292,2.6,2.6,28,0.00,CLR,SCT,0.00,WeatherDisplay:10.37,2013-01-10 18:21:00,
2013-01-10 13:26:00,71.4,35.7,29.35,NE,45,3.5,3.5,27,0.00,CLR,SCT,0.00,WeatherDisplay:10.37,2013-01-10 18:26:00,
2013-01-10 13:31:00,71.1,35.4,29.32,NE,45,3.5,3.5,27,0.00,CLR,SCT,0.00,WeatherDisplay:10.37,2013-01-10 18:31:00,
2013-01-10 13:36:00,70.9,35.2,29.32,North,0,5.8,5.8,27,0.00,CLR,SCT,0.00,WeatherDisplay:10.37,2013-01-10 18:36:00,
2013-01-10 13:41:00,71.1,35.4,29.32,North,0,2.3,2.3,27,0.00,CLR,SCT,0.00,WeatherDisplay:10.37,2013-01-10 18:41:00,
2013-01-10 13:46:00,71.4,36.6,29.32,WNW,292,5.6,5.6,28,0.00,CLR,SCT,0.00,WeatherDisplay:10.37,2013-01-10 18:46:00,
2013-01-10 13:51:00,71.1,35.4,29.32,NNE,22,2.4,2.6,27,0.00,CLR,SCT,0.00,WeatherDisplay:10.37,2013-01-10 18:51:00,
2013-01-10 13:56:00,71.4,36.6,29.32,SSE,158,3.5,3.5,28,0.00,CLR,SCT,0.00,WeatherDisplay:10.37,2013-01-10 18:56:00,
2013-01-10 14:01:00,71.1,35.4,29.29,NE,45,3.6,3.6,27,0.00,CLR,SCT,0.00,WeatherDisplay:10.37,2013-01-10 19:01:00,
2013-01-10 14:06:00,71.2,36.4,29.29,NE,45,3.3,3.3,28,0.00,CLR,SCT,0.00,WeatherDisplay:10.37,2013-01-10 19:06:00,
2013-01-10 14:11:00,71.2,36.4,29.29,NNE,22,2.3,2.3,28,0.00,CLR,SCT,0.00,WeatherDisplay:10.37,2013-01-10 19:11:00,
2013-01-10 14:16:00,71.1,36.3,29.32,NNE,22,3.5,3.5,28,0.00,CLR,SCT,0.00,WeatherDisplay:10.37,2013-01-10 19:16:00,
2013-01-10 14:21:00,71.4,36.6,29.32,North,0,1.6,1.6,28,0.00,CLR,SCT,0.00,WeatherDisplay:10.37,2013-01-10 19:21:00,
2013-01-10 14:26:00,71.2,35.5,29.32,NE,45,3.5,3.5,27,0.00,CLR,SCT,0.00,WeatherDisplay:10.37,2013-01-10 19:26:00,
2013-01-10 14:31:00,71.6,36.8,29.32,ENE,68,1.1,0.0,28,0.00,CLR,SCT,0.00,WeatherDisplay:10.37,2013-01-10 19:31:00,
2013-01-10 14:36:00,72.0,37.1,29.32,NNE,22,1.6,1.6,28,0.00,CLR,SCT,0.00,WeatherDisplay:10.37,2013-01-10 19:36:00,
2013-01-10 14:41:00,72.0,37.1,29.32,North,0,2.3,2.3,28,0.00,CLR,SCT,0.00,WeatherDisplay:10.37,2013-01-10 19:41:00,
2013-01-10 14:46:00,71.8,36.0,29.32,East,90,2.4,2.4,27,0.00,CLR,SCT,0.00,WeatherDisplay:10.37,2013-01-10 19:46:00,
2013-01-10 14:51:00,71.4,36.6,29.32,East,90,3.5,3.5,28,0.00,CLR,SCT,0.00,WeatherDisplay:10.37,2013-01-10 19:51:00,
2013-01-10 14:56:00,71.4,35.7,29.32,ENE,68,0.0,0.0,27,0.00,CLR,SCT,0.00,WeatherDisplay:10.37,2013-01-10 19:56:00,
2013-01-10 15:01:00,71.6,35.8,29.32,NE,45,2.3,2.3,27,0.00,CLR,SCT,0.00,WeatherDisplay:10.37,2013-01-10 20:01:00,
2013-01-10 15:06:00,71.1,36.3,29.32,ESE,112,3.1,3.1,28,0.00,CLR,SCT,0.00,WeatherDisplay:10.37,2013-01-10 20:06:00,
2013-01-10 15:11:00,70.7,35.1,29.32,East,90,2.3,2.3,27,0.00,CLR,SCT,0.00,WeatherDisplay:10.37,2013-01-10 20:11:00,
2013-01-10 15:16:00,70.7,35.1,29.32,NE,45,4.6,4.6,27,0.00,CLR,SCT,0.00,WeatherDisplay:10.37,2013-01-10 20:16:00,
2013-01-10 15:21:00,70.7,36.0,29.32,NNE,22,2.2,2.2,28,0.00,CLR,SCT,0.00,WeatherDisplay:10.37,2013-01-10 20:21:00,
2013-01-10 15:26:00,70.5,35.8,29.32,East,90,1.6,1.6,28,0.00,CLR,SCT,0.00,WeatherDisplay:10.37,2013-01-10 20:26:00,
2013-01-10 15:31:00,70.3,35.7,29.32,ESE,112,1.1,1.1,28,0.00,CLR,SCT,0.00,WeatherDisplay:10.37,2013-01-10 20:31:00,
2013-01-10 15:36:00,70.3,36.6,29.32,ENE,68,2.3,2.3,29,0.00,CLR,SCT,0.00,WeatherDisplay:10.37,2013-01-10 20:36:00,
2013-01-10 15:41:00,70.2,35.5,29.32,North,0,5.8,5.8,28,0.00,CLR,SCT,0.00,WeatherDisplay:10.37,2013-01-10 20:41:00,
2013-01-10 15:46:00,70.2,36.4,29.32,NNE,22,2.2,0.0,29,0.00,CLR,SCT,0.00,WeatherDisplay:10.37,2013-01-10 20:46:00,
2013-01-10 15:51:00,70.0,36.2,29.32,NE,45,2.3,0.0,29,0.00,CLR,SCT,0.00,WeatherDisplay:10.37,2013-01-10 20:51:00,
2013-01-10 15:56:00,70.0,36.2,29.32,North,0,2.3,2.3,29,0.00,CLR,SCT,0.00,WeatherDisplay:10.37,2013-01-10 20:56:00,
2013-01-10 16:01:00,69.8,35.2,29.32,NNW,338,4.6,4.6,28,0.00,CLR,SCT,0.00,WeatherDisplay:10.37,2013-01-10 21:01:00,
2013-01-10 16:06:00,69.6,35.9,29.32,North,0,4.6,4.6,29,0.00,CLR,SCT,0.00,WeatherDisplay:10.37,2013-01-10 21:06:00,
2013-01-10 16:11:00,69.4,35.8,29.32,North,0,0.0,0.0,29,0.00,CLR,SCT,0.00,WeatherDisplay:10.37,2013-01-10 21:11:00,
2013-01-10 16:16:00,69.3,36.5,29.32,North,0,1.6,1.6,30,0.00,CLR,SCT,0.00,WeatherDisplay:10.37,2013-01-10 21:16:00,
2013-01-10 16:21:00,69.3,36.5,29.32,NNE,22,2.3,2.3,30,0.00,CLR,SCT,0.00,WeatherDisplay:10.37,2013-01-10 21:21:00,
2013-01-10 16:26:00,69.1,36.3,29.32,NNE,22,2.3,2.3,30,0.00,CLR,SCT,0.00,WeatherDisplay:10.37,2013-01-10 21:26:00,
2013-01-10 16:31:00,68.9,36.2,29.32,North,0,1.1,1.1,30,0.00,CLR,SCT,0.00,WeatherDisplay:10.37,2013-01-10 21:31:00,
2013-01-10 16:36:00,68.9,36.2,29.32,NNE,22,2.3,2.3,30,0.00,CLR,SCT,0.00,WeatherDisplay:10.37,2013-01-10 21:36:00,
2013-01-10 16:41:00,68.9,37.0,29.32,NNE,22,1.1,0.0,31,0.00,CLR,SCT,0.00,WeatherDisplay:10.37,2013-01-10 21:41:00,
2013-01-10 16:46:00,68.9,37.0,29.29,ENE,68,1.1,0.0,31,0.00,CLR,SCT,0.00,WeatherDisplay:10.37,2013-01-10 21:46:00,
2013-01-10 16:51:00,68.7,36.8,29.29,North,0,2.4,0.0,31,0.00,CLR,SCT,0.00,WeatherDisplay:10.37,2013-01-10 21:51:00,
2013-01-10 16:57:00,68.4,36.5,29.29,ESE,112,0.0,0.0,31,0.00,CLR,SCT,0.00,WeatherDisplay:10.37,2013-01-10 21:57:00,
2013-01-10 17:02:00,68.2,36.4,29.32,North,0,0.0,0.0,31,0.00,CLR,SCT,0.00,WeatherDisplay:10.37,2013-01-10 22:02:00,
2013-01-10 17:07:00,67.8,36.9,29.32,ESE,112,0.0,0.0,32,0.00,CLR,SCT,0.00,WeatherDisplay:10.37,2013-01-10 22:07:00,
2013-01-10 17:12:00,67.8,36.9,29.32,East,90,0.0,0.0,32,0.00,CLR,SCT,0.00,WeatherDisplay:10.37,2013-01-10 22:12:00,
2013-01-10 17:17:00,67.5,36.6,29.32,ENE,68,0.0,0.0,32,0.00,CLR,SCT,0.00,WeatherDisplay:10.37,2013-01-10 22:17:00,
2013-01-10 17:22:00,67.3,37.2,29.32,NNE,22,0.0,0.0,33,0.00,CLR,SCT,0.00,WeatherDisplay:10.37,2013-01-10 22:22:00,
2013-01-10 17:27:00,67.1,37.0,29.32,NNE,22,1.1,1.1,33,0.00,CLR,SCT,0.00,WeatherDisplay:10.37,2013-01-10 22:27:00,
2013-01-10 17:32:00,66.7,36.7,29.32,NNE,22,0.0,0.0,33,0.00,CLR,SCT,0.00,WeatherDisplay:10.37,2013-01-10 22:32:00,
2013-01-10 17:37:00,66.4,36.4,29.32,NNE,22,0.0,0.0,33,0.00,CLR,SCT,0.00,WeatherDisplay:10.37,2013-01-10 22:37:00,
2013-01-10 17:42:00,66.2,36.2,29.32,NNE,22,0.0,0.0,33,0.00,CLR,SCT,0.00,WeatherDisplay:10.37,2013-01-10 22:42:00,
2013-01-10 17:47:00,65.7,35.8,29.29,NNE,22,0.0,0.0,33,0.00,CLR,SCT,0.00,WeatherDisplay:10.37,2013-01-10 22:47:00,
2013-01-10 17:52:00,65.3,36.2,29.29,NNE,22,0.0,0.0,34,0.00,CLR,SCT,0.00,WeatherDisplay:10.37,2013-01-10 22:52:00,
2013-01-10 17:57:00,64.9,35.9,29.29,NNE,22,0.0,0.0,34,0.00,CLR,SCT,0.00,WeatherDisplay:10.37,2013-01-10 22:57:00,
2013-01-10 18:02:00,64.6,35.6,29.32,NNE,22,0.0,0.0,34,0.00,CLR,SCT,0.00,WeatherDisplay:10.37,2013-01-10 23:02:00,
2013-01-10 18:07:00,64.4,35.4,29.32,NNE,22,0.0,0.0,34,0.00,CLR,SCT,0.00,WeatherDisplay:10.37,2013-01-10 23:07:00,
2013-01-10 18:12:00,64.2,36.0,29.32,NNE,22,0.0,0.0,35,0.00,CLR,SCT,0.00,WeatherDisplay:10.37,2013-01-10 23:12:00,
2013-01-10 18:17:00,64.6,36.3,29.32,NNE,22,2.3,2.3,35,0.00,CLR,SCT,0.00,WeatherDisplay:10.37,2013-01-10 23:17:00,
2013-01-10 18:22:00,64.8,36.5,29.32,ENE,68,1.1,1.1,35,0.00,CLR,SCT,0.00,WeatherDisplay:10.37,2013-01-10 23:22:00,
2013-01-10 18:27:00,64.8,36.5,29.32,NNE,22,1.1,1.4,35,0.00,CLR,SCT,0.00,WeatherDisplay:10.37,2013-01-10 23:27:00,
2013-01-10 18:32:00,64.8,36.5,29.29,NNE,22,0.0,0.0,35,0.00,CLR,SCT,0.00,WeatherDisplay:10.37,2013-01-10 23:32:00,
2013-01-10 18:37:00,64.6,36.3,29.29,NNE,22,0.0,0.0,35,0.00,CLR,SCT,0.00,WeatherDisplay:10.37,2013-01-10 23:37:00,
2013-01-10 18:42:00,64.6,36.3,29.29,NNE,22,0.0,0.0,35,0.00,CLR,SCT,0.00,WeatherDisplay:10.37,2013-01-10 23:42:00,
2013-01-10 18:48:00,64.6,36.3,29.32,North,0,1.1,0.0,35,0.00,CLR,SCT,0.00,WeatherDisplay:10.37,2013-01-10 23:48:00,
2013-01-10 18:53:00,64.6,36.3,29.32,North,0,1.1,1.1,35,0.00,CLR,SCT,0.00,WeatherDisplay:10.37,2013-01-10 23:53:00,
2013-01-10 18:58:00,64.4,36.1,29.32,NNE,22,1.1,1.1,35,0.00,CLR,SCT,0.00,WeatherDisplay:10.37,2013-01-10 23:58:00,
2013-01-10 19:03:00,64.4,36.1,29.32,North,0,0.0,0.0,35,0.00,CLR,SCT,0.00,WeatherDisplay:10.37,2013-01-11 00:03:00,
2013-01-10 19:08:00,64.2,36.7,29.32,NNE,22,1.1,0.0,36,0.00,CLR,SCT,0.00,WeatherDisplay:10.37,2013-01-11 00:08:00,
2013-01-10 19:13:00,64.2,36.7,29.32,North,0,2.3,2.3,36,0.00,CLR,SCT,0.00,WeatherDisplay:10.37,2013-01-11 00:13:00,
2013-01-10 19:18:00,64.2,36.7,29.32,NNE,22,2.0,2.0,36,0.00,CLR,SCT,0.00,WeatherDisplay:10.37,2013-01-11 00:18:00,
2013-01-10 19:23:00,64.2,36.7,29.32,North,0,2.3,2.3,36,0.00,CLR,SCT,0.00,WeatherDisplay:10.37,2013-01-11 00:23:00,
2013-01-10 19:28:00,64.2,36.7,29.32,North,0,2.3,2.3,36,0.00,CLR,SCT,0.00,WeatherDisplay:10.37,2013-01-11 00:28:00,
2013-01-10 19:34:00,64.2,36.7,29.32,North,0,2.3,2.3,36,0.00,CLR,SCT,0.00,WeatherDisplay:10.37,2013-01-11 00:34:00,
2013-01-10 19:39:00,64.2,36.7,29.32,East,90,2.3,2.3,36,0.00,CLR,SCT,0.00,WeatherDisplay:10.37,2013-01-11 00:39:00,
2013-01-10 19:44:00,64.0,36.5,29.32,North,0,2.3,2.3,36,0.00,CLR,SCT,0.00,WeatherDisplay:10.37,2013-01-11 00:44:00,
2013-01-10 19:49:00,63.9,36.4,29.32,NE,45,1.1,0.0,36,0.00,CLR,SCT,0.00,WeatherDisplay:10.37,2013-01-11 00:49:00,
2013-01-10 19:54:00,63.9,36.4,29.32,NNE,22,3.5,3.5,36,0.00,CLR,SCT,0.00,WeatherDisplay:10.37,2013-01-11 00:54:00,
2013-01-10 19:59:00,63.7,36.2,29.32,NNE,22,0.0,0.0,36,0.00,CLR,SCT,0.00,WeatherDisplay:10.37,2013-01-11 00:59:00,
2013-01-10 20:04:00,63.5,36.0,29.32,NNE,22,0.0,0.0,36,0.00,CLR,SCT,0.00,WeatherDisplay:10.37,2013-01-11 01:04:00,
2013-01-10 20:09:00,63.5,36.0,29.32,ENE,68,2.3,2.3,36,0.00,CLR,SCT,0.00,WeatherDisplay:10.37,2013-01-11 01:09:00,
2013-01-10 20:14:00,63.5,36.0,29.32,NE,45,2.3,2.3,36,0.00,CLR,SCT,0.00,WeatherDisplay:10.37,2013-01-11 01:14:00,
2013-01-10 20:19:00,63.5,36.0,29.32,NNE,22,2.3,2.3,36,0.00,CLR,SCT,0.00,WeatherDisplay:10.37,2013-01-11 01:19:00,
2013-01-10 20:25:00,63.3,35.9,29.32,North,7,0.0,2.0,36,0.00,CLR,SCT,0.00,WeatherDisplay:10.37,2013-01-11 01:25:00,
2013-01-10 20:30:00,63.1,36.4,29.32,North,3,0.0,2.0,37,0.00,CLR,SCT,0.00,WeatherDisplay:10.37,2013-01-11 01:30:00,
2013-01-10 20:35:00,63.1,36.4,29.32,NNE,19,1.0,2.0,37,0.00,CLR,SCT,0.00,WeatherDisplay:10.37,2013-01-11 01:35:00,
2013-01-10 20:40:00,63.1,36.4,29.32,NNE,30,1.0,2.0,37,0.00,CLR,SCT,0.00,WeatherDisplay:10.37,2013-01-11 01:40:00,
2013-01-10 20:45:00,63.0,36.3,29.32,NNE,22,2.3,2.3,37,0.00,CLR,SCT,0.00,WeatherDisplay:10.37,2013-01-11 01:45:00,
2013-01-10 20:50:00,63.0,36.9,29.32,ENE,68,3.5,3.5,38,0.00,CLR,SCT,0.00,WeatherDisplay:10.37,2013-01-11 01:50:00,
2013-01-10 20:55:00,62.8,36.8,29.32,NE,45,0.0,0.0,38,0.00,CLR,SCT,0.00,WeatherDisplay:10.37,2013-01-11 01:55:00,
2013-01-10 21:00:00,62.8,37.4,29.32,NNE,22,2.3,2.3,39,0.00,CLR,SCT,0.00,WeatherDisplay:10.37,2013-01-11 02:00:00,
2013-01-10 21:05:00,62.8,38.1,29.29,NNE,22,1.1,1.1,40,0.00,CLR,SCT,0.00,WeatherDisplay:10.37,2013-01-11 02:05:00,
2013-01-10 21:10:00,62.6,39.2,29.29,NNE,22,2.3,2.3,42,0.00,CLR,SCT,0.00,WeatherDisplay:10.37,2013-01-11 02:10:00,
2013-01-10 21:15:00,62.6,39.2,29.29,ENE,68,1.1,0.0,42,0.00,CLR,SCT,0.00,WeatherDisplay:10.37,2013-01-11 02:15:00,
2013-01-10 21:20:00,62.6,39.8,29.29,NNE,22,2.3,2.3,43,0.00,CLR,SCT,0.00,WeatherDisplay:10.37,2013-01-11 02:20:00,
2013-01-10 21:25:00,62.4,40.2,29.29,East,90,0.0,0.0,44,0.00,CLR,SCT,0.00,WeatherDisplay:10.37,2013-01-11 02:25:00,
2013-01-10 21:30:00,62.2,40.0,29.29,NE,45,1.1,0.0,44,0.00,CLR,SCT,0.00,WeatherDisplay:10.37,2013-01-11 02:30:00,
2013-01-10 21:35:00,62.4,40.2,29.32,NNE,22,2.3,2.3,44,0.00,CLR,SCT,0.00,WeatherDisplay:10.37,2013-01-11 02:35:00,
2013-01-10 21:41:00,62.4,40.2,29.32,NNE,22,2.3,0.0,44,0.00,CLR,SCT,0.00,WeatherDisplay:10.37,2013-01-11 02:41:00,
2013-01-10 21:46:00,62.4,40.2,29.29,SE,135,1.4,1.4,44,0.00,CLR,SCT,0.00,WeatherDisplay:10.37,2013-01-11 02:46:00,
2013-01-10 21:51:00,62.4,40.2,29.29,NNE,22,1.4,1.4,44,0.00,CLR,SCT,0.00,WeatherDisplay:10.37,2013-01-11 02:51:00,
2013-01-10 21:56:00,62.2,40.0,29.29,NE,45,0.9,1.1,44,0.00,CLR,SCT,0.00,WeatherDisplay:10.37,2013-01-11 02:56:00,
2013-01-10 22:01:00,62.1,40.5,29.29,East,90,2.3,2.3,45,0.00,CLR,SCT,0.00,WeatherDisplay:10.37,2013-01-11 03:01:00,
2013-01-10 22:06:00,61.3,41.5,29.29,NNW,338,1.1,1.4,48,0.00,CLR,SCT,0.00,WeatherDisplay:10.37,2013-01-11 03:06:00,
2013-01-10 22:11:00,60.8,41.0,29.29,East,90,2.9,2.9,48,0.00,CLR,SCT,0.00,WeatherDisplay:10.37,2013-01-11 03:11:00,
2013-01-10 22:16:00,60.1,42.9,29.29,East,90,1.1,0.0,53,0.00,CLR,SCT,0.00,WeatherDisplay:10.37,2013-01-11 03:16:00,
2013-01-10 22:21:00,59.7,44.0,29.29,East,90,0.0,0.0,56,0.00,CLR,SCT,0.00,WeatherDisplay:10.37,2013-01-11 03:21:00,
2013-01-10 22:26:00,59.5,44.3,29.29,East,90,0.0,0.0,57,0.00,CLR,SCT,0.00,WeatherDisplay:10.37,2013-01-11 03:26:00,
2013-01-10 22:31:00,59.2,44.4,29.29,ENE,68,0.0,0.0,58,0.00,CLR,SCT,0.00,WeatherDisplay:10.37,2013-01-11 03:31:00,
2013-01-10 22:36:00,59.2,45.7,29.29,ENE,68,0.0,0.0,61,0.00,CLR,SCT,0.00,WeatherDisplay:10.37,2013-01-11 03:36:00,
2013-01-10 22:41:00,59.0,45.6,29.29,North,0,0.0,0.0,61,0.00,CLR,SCT,0.00,WeatherDisplay:10.37,2013-01-11 03:41:00,
2013-01-10 22:46:00,58.8,46.2,29.29,NE,45,0.0,0.0,63,0.00,CLR,SCT,0.00,WeatherDisplay:10.37,2013-01-11 03:46:00,
2013-01-10 22:51:00,58.8,46.7,29.29,NE,45,0.0,0.0,64,0.00,CLR,SCT,0.00,WeatherDisplay:10.37,2013-01-11 03:51:00,
2013-01-10 22:56:00,58.6,47.3,29.29,NE,45,0.0,0.0,66,0.00,CLR,SCT,0.00,WeatherDisplay:10.37,2013-01-11 03:56:00,
2013-01-10 23:01:00,58.6,47.7,29.26,NE,45,0.0,0.0,67,0.00,CLR,SCT,0.00,WeatherDisplay:10.37,2013-01-11 04:01:00,
2013-01-10 23:06:00,58.5,47.9,29.26,NE,45,0.0,0.0,68,0.00,CLR,SCT,0.00,WeatherDisplay:10.37,2013-01-11 04:06:00,
2013-01-10 23:11:00,58.5,47.9,29.26,NE,45,0.0,0.0,68,0.00,CLR,SCT,0.00,WeatherDisplay:10.37,2013-01-11 04:11:00,
2013-01-10 23:16:00,58.5,48.3,29.29,NE,45,0.0,0.0,69,0.00,CLR,SCT,0.00,WeatherDisplay:10.37,2013-01-11 04:16:00,
2013-01-10 23:21:00,58.3,48.2,29.29,NE,45,0.0,0.0,69,0.00,CLR,SCT,0.00,WeatherDisplay:10.37,2013-01-11 04:21:00,
2013-01-10 23:26:00,58.3,48.2,29.29,NE,45,0.0,0.0,69,0.00,CLR,SCT,0.00,WeatherDisplay:10.37,2013-01-11 04:26:00,
2013-01-10 23:31:00,58.3,48.5,29.26,NE,45,0.0,0.0,70,0.00,CLR,SCT,0.00,WeatherDisplay:10.37,2013-01-11 04:31:00,
2013-01-10 23:36:00,58.5,48.7,29.26,North,0,2.4,2.4,70,0.00,CLR,SCT,0.00,WeatherDisplay:10.37,2013-01-11 04:36:00,
2013-01-10 23:41:00,58.5,49.1,29.26,NW,315,1.6,1.6,71,0.00,CLR,SCT,0.00,WeatherDisplay:10.37,2013-01-11 04:41:00,
2013-01-10 23:46:00,58.3,49.3,29.26,NNE,22,1.1,0.0,72,0.00,CLR,SCT,0.00,WeatherDisplay:10.37,2013-01-11 04:46:00,
2013-01-10 23:51:00,58.5,50.2,29.26,NNE,22,2.3,2.3,74,0.00,CLR,SCT,0.00,WeatherDisplay:10.37,2013-01-11 04:51:00,
2013-01-10 23:56:00,58.5,49.8,29.26,North,0,1.1,1.1,73,0.00,CLR,SCT,0.00,WeatherDisplay:10.37,2013-01-11 04:56:00,